Time;durP1;ratioP1;P1;durP2;ratioP2;P2;SDS_P1;SDS_P2;PMS_P1;PMS_P2;Temp;Humidity;BMP_temperature;BMP_pressure;BME280_temperature;BME280_humidity;BME280_pressure;Samples;Min_cycle;Max_cycle;Signal;HPM_P1;HPM_P2
2022/06/17 00:02:00;;;;;;;;;;;20.00;62.30;;;;;;5105075;28;19912;-70
2022/06/17 00:04:26;;;;;;;;;;;20.00;63.00;;;;;;5104200;28;20336;-70
2022/06/17 00:06:54;;;;;;;;;;;19.90;62.50;;;;;;5104606;28;19918;-70
2022/06/17 00:09:21;;;;;;;;;;;19.90;62.40;;;;;;5103116;28;19943;-70
2022/06/17 00:11:46;;;;;;;;;;;19.80;62.50;;;;;;5106554;27;20204;-70
2022/06/17 00:14:14;;;;;;;;;;;19.80;62.60;;;;;;5104753;28;19912;-70
2022/06/17 00:16:39;;;;;;;;;;;19.80;62.70;;;;;;5105992;28;19998;-70
2022/06/17 00:19:05;;;;;;;;;;;19.80;62.70;;;;;;5103091;28;20572;-70
2022/06/17 00:21:35;;;;;;;;;;;19.70;62.80;;;;;;5100078;28;19983;-70
2022/06/17 00:24:05;;;;;;;;;;;19.70;62.80;;;;;;5104057;28;19920;-70
2022/06/17 00:26:30;;;;;;;;;;;19.70;62.90;;;;;;5102285;28;20280;-70
2022/06/17 00:28:56;;;;;;;;;;;19.60;62.90;;;;;;5104095;28;19916;-70
2022/06/17 00:31:21;;;;;;;;;;;19.60;63.00;;;;;;5104689;28;19990;-70
2022/06/17 00:33:47;;;;;;;;;;;19.50;63.10;;;;;;5103714;28;19916;-70
2022/06/17 00:36:14;;;;;;;;;;;19.50;63.20;;;;;;5102450;28;20475;-70
2022/06/17 00:38:39;;;;;;;;;;;19.50;63.00;;;;;;5103564;28;19938;-70
2022/06/17 00:41:16;;;;;;;;;;;19.50;63.30;;;;;;5104232;28;19915;-70
2022/06/17 00:43:44;;;;;;;;;;;19.50;63.40;;;;;;5105865;28;19920;-70
2022/06/17 00:46:24;;;;;;;;;;;19.40;63.30;;;;;;5102110;28;19975;-70
2022/06/17 00:49:10;;;;;;;;;;;19.40;63.50;;;;;;5104008;28;19912;-70
2022/06/17 00:51:46;;;;;;;;;;;19.30;63.60;;;;;;5101391;28;19976;-70
2022/06/17 00:54:19;;;;;;;;;;;19.30;63.70;;;;;;5105741;28;19911;-69
2022/06/17 00:56:44;;;;;;;;;;;19.30;63.70;;;;;;5104873;28;19916;-70
2022/06/17 00:59:13;;;;;;;;;;;19.30;63.70;;;;;;5103613;28;19911;-70
2022/06/17 01:01:50;;;;;;;;;;;19.30;63.90;;;;;;5101422;28;20452;-71
2022/06/17 01:04:17;;;;;;;;;;;19.20;64.00;;;;;;5105033;28;19922;-70
2022/06/17 01:06:46;;;;;;;;;;;19.20;64.00;;;;;;5099408;28;19916;-70
2022/06/17 01:12:01;;;;;;;;;;;19.10;63.90;;;;;;5098957;28;19923;-70
2022/06/17 01:14:27;;;;;;;;;;;19.10;64.30;;;;;;5106190;28;20625;-70
2022/06/17 01:16:53;;;;;;;;;;;19.10;64.20;;;;;;5097967;28;19923;-70
2022/06/17 01:19:48;;;;;;;;;;;19.00;64.10;;;;;;5104253;28;20380;-70
2022/06/17 01:22:14;;;;;;;;;;;19.00;64.20;;;;;;5089271;28;19951;-70
2022/06/17 01:24:39;;;;;;;;;;;19.00;64.60;;;;;;5105919;28;20014;-70
2022/06/17 01:27:05;;;;;;;;;;;19.00;64.40;;;;;;5101550;28;19920;-70
2022/06/17 01:29:32;;;;;;;;;;;18.90;64.50;;;;;;5104650;28;19912;-70
2022/06/17 01:31:57;;;;;;;;;;;18.90;64.30;;;;;;5099859;28;19922;-70
2022/06/17 01:34:24;;;;;;;;;;;18.90;64.50;;;;;;5104849;28;19920;-70
2022/06/17 01:36:50;;;;;;;;;;;18.90;64.70;;;;;;5098531;28;19919;-70
2022/06/17 01:39:17;;;;;;;;;;;18.90;64.60;;;;;;5101408;28;19981;-70
2022/06/17 01:41:43;;;;;;;;;;;18.80;64.70;;;;;;5102116;28;19916;-70
2022/06/17 01:44:11;;;;;;;;;;;18.80;64.90;;;;;;5104551;28;19924;-70
2022/06/17 01:46:38;;;;;;;;;;;18.80;64.90;;;;;;5096684;28;19923;-70
2022/06/17 01:49:06;;;;;;;;;;;18.80;65.10;;;;;;5104003;28;21106;-70
2022/06/17 01:51:33;;;;;;;;;;;18.70;65.20;;;;;;5099199;28;19915;-70
2022/06/17 01:54:02;;;;;;;;;;;18.70;65.20;;;;;;5103970;28;20386;-70
2022/06/17 01:56:30;;;;;;;;;;;18.70;65.20;;;;;;5100476;28;19919;-70
2022/06/17 01:58:55;;;;;;;;;;;18.70;65.30;;;;;;5100489;28;19960;-70
2022/06/17 02:01:22;;;;;;;;;;;18.60;65.30;;;;;;5102218;28;20011;-70
2022/06/17 02:03:50;;;;;;;;;;;18.60;65.40;;;;;;5094358;28;19980;-70
2022/06/17 02:06:23;;;;;;;;;;;18.60;65.40;;;;;;5098215;28;20634;-70
2022/06/17 02:08:51;;;;;;;;;;;18.50;65.70;;;;;;5099637;28;19926;-70
2022/06/17 02:11:17;;;;;;;;;;;18.60;65.50;;;;;;5102540;28;19923;-70
2022/06/17 02:13:42;;;;;;;;;;;18.50;65.90;;;;;;5099816;28;20424;-70
2022/06/17 02:16:08;;;;;;;;;;;18.50;65.90;;;;;;5102612;28;19923;-70
2022/06/17 02:18:34;;;;;;;;;;;18.40;65.80;;;;;;5101724;28;19912;-70
2022/06/17 02:21:02;;;;;;;;;;;18.50;65.70;;;;;;5103439;28;19946;-70
2022/06/17 02:23:28;;;;;;;;;;;18.40;65.70;;;;;;5101735;28;19920;-70
2022/06/17 02:25:54;;;;;;;;;;;18.40;66.00;;;;;;5103175;28;19922;-70
2022/06/17 02:28:21;;;;;;;;;;;18.40;65.70;;;;;;5100989;28;20010;-70
2022/06/17 02:30:47;;;;;;;;;;;18.40;66.20;;;;;;5104591;28;20424;-70
2022/06/17 02:33:13;;;;;;;;;;;18.30;66.30;;;;;;5104128;28;19915;-70
2022/06/17 02:35:48;;;;;;;;;;;18.30;66.40;;;;;;5109057;27;20283;-70
2022/06/17 02:38:16;;;;;;;;;;;18.30;66.40;;;;;;5101192;28;19922;-70
2022/06/17 02:40:45;;;;;;;;;;;18.20;66.00;;;;;;5107980;28;19923;-70
2022/06/17 02:43:32;;;;;;;;;;;18.20;66.20;;;;;;5103101;28;19922;-70
2022/06/17 02:46:00;;;;;;;;;;;18.20;66.30;;;;;;5101900;28;20003;-70
2022/06/17 02:48:27;;;;;;;;;;;18.20;66.40;;;;;;5102248;28;19923;-69
2022/06/17 02:50:54;;;;;;;;;;;18.20;66.60;;;;;;5105318;28;20375;-69
2022/06/17 02:53:23;;;;;;;;;;;18.10;66.60;;;;;;5105974;28;19912;-70
2022/06/17 02:55:50;;;;;;;;;;;18.10;66.50;;;;;;5106027;27;20684;-70
2022/06/17 02:58:15;;;;;;;;;;;18.10;66.80;;;;;;5104365;28;19919;-70
2022/06/17 03:00:42;;;;;;;;;;;18.10;66.80;;;;;;5105781;28;20597;-70
2022/06/17 03:03:10;;;;;;;;;;;18.10;67.20;;;;;;5107038;28;19968;-70
2022/06/17 03:05:37;;;;;;;;;;;18.10;67.00;;;;;;5103653;28;19963;-70
2022/06/17 03:08:09;;;;;;;;;;;18.00;66.80;;;;;;5105420;28;19987;-70
2022/06/17 03:10:40;;;;;;;;;;;18.00;66.90;;;;;;5104977;28;19969;-70
2022/06/17 03:13:08;;;;;;;;;;;18.00;67.10;;;;;;5108003;28;19922;-70
2022/06/17 03:15:34;;;;;;;;;;;18.00;67.30;;;;;;5104401;28;20522;-70
2022/06/17 03:17:59;;;;;;;;;;;17.90;67.20;;;;;;5107600;28;19950;-70
2022/06/17 03:20:34;;;;;;;;;;;17.90;67.50;;;;;;5104445;28;19915;-70
2022/06/17 03:23:03;;;;;;;;;;;17.90;67.30;;;;;;5107474;28;20284;-70
2022/06/17 03:25:54;;;;;;;;;;;17.90;67.40;;;;;;5103585;28;20694;-69
2022/06/17 03:28:25;;;;;;;;;;;17.90;67.50;;;;;;5105530;28;20403;-70
2022/06/17 03:31:16;;;;;;;;;;;17.80;67.30;;;;;;5104219;28;19920;-70
2022/06/17 03:33:51;;;;;;;;;;;17.80;67.20;;;;;;5101376;28;19916;-70
2022/06/17 03:36:32;;;;;;;;;;;17.80;67.30;;;;;;5102610;28;20524;-69
2022/06/17 03:38:58;;;;;;;;;;;17.80;67.80;;;;;;5102630;28;19912;-70
2022/06/17 03:41:29;;;;;;;;;;;17.80;67.70;;;;;;5098794;28;20069;-70
2022/06/17 03:44:07;;;;;;;;;;;17.80;67.80;;;;;;5105290;28;19915;-70
2022/06/17 03:46:38;;;;;;;;;;;17.70;68.00;;;;;;5097238;28;20482;-70
2022/06/17 03:49:07;;;;;;;;;;;17.70;67.60;;;;;;5105768;28;19922;-70
2022/06/17 03:51:35;;;;;;;;;;;17.70;68.00;;;;;;5102554;28;19967;-70
2022/06/17 03:54:00;;;;;;;;;;;17.70;67.90;;;;;;5107274;28;19916;-70
2022/06/17 03:56:28;;;;;;;;;;;17.70;68.00;;;;;;5102131;28;19922;-70
2022/06/17 03:58:56;;;;;;;;;;;17.70;68.10;;;;;;5104135;28;19946;-70
2022/06/17 04:01:21;;;;;;;;;;;17.70;68.20;;;;;;5106124;28;19983;-70
2022/06/17 04:03:50;;;;;;;;;;;17.70;68.30;;;;;;5099313;28;19920;-70
2022/06/17 04:06:17;;;;;;;;;;;17.70;68.60;;;;;;5103880;28;19955;-70
2022/06/17 04:09:09;;;;;;;;;;;17.60;68.40;;;;;;5099535;28;19995;-70
2022/06/17 04:11:36;;;;;;;;;;;17.60;68.30;;;;;;5096747;28;19920;-70
2022/06/17 04:14:04;;;;;;;;;;;17.60;68.30;;;;;;5097789;28;19920;-70
2022/06/17 04:16:49;;;;;;;;;;;17.60;68.10;;;;;;5106056;28;19922;-70
2022/06/17 04:19:16;;;;;;;;;;;17.70;68.50;;;;;;5097610;28;20308;-70
2022/06/17 04:21:42;;;;;;;;;;;17.70;68.30;;;;;;5106143;28;19916;-70
2022/06/17 04:24:16;;;;;;;;;;;17.60;68.30;;;;;;5102440;28;19919;-70
2022/06/17 04:26:42;;;;;;;;;;;17.60;68.60;;;;;;5100993;28;19912;-70
2022/06/17 04:29:11;;;;;;;;;;;17.60;68.50;;;;;;5097129;28;19916;-70
2022/06/17 04:31:36;;;;;;;;;;;17.60;68.60;;;;;;5103777;27;21615;-70
2022/06/17 04:34:15;;;;;;;;;;;17.60;68.70;;;;;;5100580;28;19916;-70
2022/06/17 04:36:48;;;;;;;;;;;17.60;68.80;;;;;;5100950;28;19923;-70
2022/06/17 04:39:26;;;;;;;;;;;17.60;68.90;;;;;;5102170;27;19942;-70
2022/06/17 04:41:53;;;;;;;;;;;17.60;68.90;;;;;;5105918;28;19919;-70
2022/06/17 04:44:19;;;;;;;;;;;17.60;68.80;;;;;;5098966;28;20287;-70
2022/06/17 04:46:49;;;;;;;;;;;17.60;68.80;;;;;;5105676;28;19912;-70
2022/06/17 04:49:19;;;;;;;;;;;17.60;69.10;;;;;;5098391;28;19943;-70
2022/06/17 04:51:46;;;;;;;;;;;17.60;69.00;;;;;;5105796;28;19927;-70
2022/06/17 04:54:11;;;;;;;;;;;17.60;68.90;;;;;;5100005;28;19917;-70
2022/06/17 04:56:39;;;;;;;;;;;17.60;68.90;;;;;;5104909;28;19915;-70
2022/06/17 04:59:24;;;;;;;;;;;17.60;69.00;;;;;;5099385;28;19912;-70
2022/06/17 05:01:50;;;;;;;;;;;17.50;69.10;;;;;;5103191;28;19923;-70
2022/06/17 05:04:16;;;;;;;;;;;17.60;69.30;;;;;;5100102;28;19920;-70
2022/06/17 05:06:42;;;;;;;;;;;17.50;69.20;;;;;;5104019;28;20010;-70
2022/06/17 05:09:27;;;;;;;;;;;17.60;69.30;;;;;;5100675;28;19942;-70
2022/06/17 05:12:00;;;;;;;;;;;17.50;69.20;;;;;;5102379;28;19919;-70
2022/06/17 05:14:25;;;;;;;;;;;17.60;69.10;;;;;;5102076;28;19916;-70
2022/06/17 05:16:51;;;;;;;;;;;17.60;69.40;;;;;;5104034;28;19992;-70
2022/06/17 05:19:16;;;;;;;;;;;17.60;69.30;;;;;;5102961;28;20721;-70
2022/06/17 05:21:42;;;;;;;;;;;17.60;69.40;;;;;;5099640;28;19988;-70
2022/06/17 05:24:08;;;;;;;;;;;17.60;69.50;;;;;;5105632;28;20635;-70
2022/06/17 05:26:33;;;;;;;;;;;17.60;69.30;;;;;;5099867;28;19922;-70
2022/06/17 05:28:59;;;;;;;;;;;17.60;69.50;;;;;;5103136;28;19916;-70
2022/06/17 05:31:26;;;;;;;;;;;17.60;69.30;;;;;;5101795;28;19920;-70
2022/06/17 05:33:51;;;;;;;;;;;17.60;69.30;;;;;;5105210;28;20010;-70
2022/06/17 05:36:17;;;;;;;;;;;17.60;69.20;;;;;;5099431;28;20014;-70
2022/06/17 05:38:43;;;;;;;;;;;17.60;69.10;;;;;;5104295;28;19919;-70
2022/06/17 05:41:15;;;;;;;;;;;17.70;69.10;;;;;;5099593;28;20306;-70
2022/06/17 05:43:41;;;;;;;;;;;17.70;69.10;;;;;;5104984;28;19916;-70
2022/06/17 05:46:07;;;;;;;;;;;17.80;69.00;;;;;;5101723;28;19916;-70
2022/06/17 05:48:32;;;;;;;;;;;17.80;68.80;;;;;;5104591;28;19912;-70
2022/06/17 05:50:58;;;;;;;;;;;17.80;68.90;;;;;;5100064;28;20713;-70
2022/06/17 05:53:23;;;;;;;;;;;17.90;68.70;;;;;;5103081;28;19912;-70
2022/06/17 05:55:50;;;;;;;;;;;17.90;68.60;;;;;;5104048;28;20413;-70
2022/06/17 05:58:16;;;;;;;;;;;18.00;68.50;;;;;;5097921;28;19912;-70
2022/06/17 06:00:42;;;;;;;;;;;18.00;68.40;;;;;;5105391;28;19912;-70
2022/06/17 06:03:08;;;;;;;;;;;18.00;68.30;;;;;;5101127;28;19978;-70
2022/06/17 06:05:34;;;;;;;;;;;18.10;68.30;;;;;;5105043;28;20279;-70
2022/06/17 06:08:00;;;;;;;;;;;18.10;68.20;;;;;;5097385;28;20436;-70
2022/06/17 06:10:25;;;;;;;;;;;18.10;68.10;;;;;;5105115;28;19998;-70
2022/06/17 06:12:54;;;;;;;;;;;18.20;68.10;;;;;;5100473;28;19923;-70
2022/06/17 06:15:39;;;;;;;;;;;18.20;68.00;;;;;;5105093;28;19908;-70
2022/06/17 06:18:13;;;;;;;;;;;18.20;68.00;;;;;;5094174;28;20558;-70
2022/06/17 06:20:38;;;;;;;;;;;18.20;67.80;;;;;;5099419;28;20542;-70
2022/06/17 06:23:04;;;;;;;;;;;18.20;67.80;;;;;;5100875;28;19916;-70
2022/06/17 06:25:30;;;;;;;;;;;18.30;67.80;;;;;;5104763;28;19919;-70
2022/06/17 06:27:55;;;;;;;;;;;18.30;67.60;;;;;;5097980;28;19976;-70
2022/06/17 06:30:28;;;;;;;;;;;18.40;67.60;;;;;;5101713;28;19912;-70
2022/06/17 06:32:56;;;;;;;;;;;18.40;67.60;;;;;;5100735;28;20125;-70
2022/06/17 06:35:25;;;;;;;;;;;18.40;67.50;;;;;;5104651;28;19916;-70
2022/06/17 06:37:50;;;;;;;;;;;18.50;67.40;;;;;;5095989;28;19920;-70
2022/06/17 06:40:16;;;;;;;;;;;18.50;67.20;;;;;;5104542;28;19912;-70
2022/06/17 06:42:42;;;;;;;;;;;18.60;67.30;;;;;;5101520;28;19918;-70
2022/06/17 06:45:11;;;;;;;;;;;18.60;67.20;;;;;;5101647;28;19915;-70
2022/06/17 06:47:37;;;;;;;;;;;18.70;67.10;;;;;;5103708;28;19919;-70
2022/06/17 06:50:02;;;;;;;;;;;18.70;67.20;;;;;;5101520;28;19915;-70
2022/06/17 06:52:28;;;;;;;;;;;18.70;67.00;;;;;;5104272;28;20023;-70
2022/06/17 06:54:53;;;;;;;;;;;18.80;66.90;;;;;;5097876;28;20515;-70
2022/06/17 06:57:19;;;;;;;;;;;18.80;66.90;;;;;;5103680;28;19912;-71
2022/06/17 06:59:46;;;;;;;;;;;18.80;66.80;;;;;;5096533;28;20212;-70
2022/06/17 07:02:12;;;;;;;;;;;18.80;66.80;;;;;;5104075;28;19916;-70
2022/06/17 07:04:37;;;;;;;;;;;18.80;66.80;;;;;;5101166;28;19926;-70
2022/06/17 07:07:04;;;;;;;;;;;18.80;66.80;;;;;;5102439;28;19918;-70
2022/06/17 07:09:30;;;;;;;;;;;18.80;66.80;;;;;;5092821;28;19912;-70
2022/06/17 07:11:55;;;;;;;;;;;18.90;66.80;;;;;;5103753;28;19951;-70
2022/06/17 07:14:21;;;;;;;;;;;18.90;66.70;;;;;;5095321;28;19916;-70
2022/06/17 07:16:46;;;;;;;;;;;18.90;66.60;;;;;;5103997;28;19911;-70
2022/06/17 07:19:14;;;;;;;;;;;18.90;66.60;;;;;;5103920;28;20521;-70
2022/06/17 07:21:40;;;;;;;;;;;18.90;66.60;;;;;;5103799;28;19923;-70
2022/06/17 07:24:06;;;;;;;;;;;19.00;66.60;;;;;;5107423;28;19916;-71
2022/06/17 07:26:32;;;;;;;;;;;19.00;66.60;;;;;;5103156;28;19927;-71
2022/06/17 07:28:57;;;;;;;;;;;19.00;66.60;;;;;;5099364;28;19912;-70
2022/06/17 07:31:23;;;;;;;;;;;19.00;66.40;;;;;;5103959;28;20538;-71
2022/06/17 07:33:48;;;;;;;;;;;19.00;66.50;;;;;;5107250;28;19969;-71
2022/06/17 07:41:44;;;;;;;;;;;19.10;66.40;;;;;;5103479;28;20003;-71
2022/06/17 07:44:09;;;;;;;;;;;19.10;66.30;;;;;;5107288;28;20018;-71
2022/06/17 07:46:35;;;;;;;;;;;19.10;66.20;;;;;;5102249;28;19920;-70
2022/06/17 07:49:01;;;;;;;;;;;19.10;66.10;;;;;;5106742;28;19911;-70
2022/06/17 07:51:27;;;;;;;;;;;19.20;66.00;;;;;;5103911;28;19973;-70
2022/06/17 07:53:53;;;;;;;;;;;19.20;65.80;;;;;;5106979;28;19912;-71
2022/06/17 07:56:20;;;;;;;;;;;19.20;65.80;;;;;;5101998;28;19951;-70
2022/06/17 07:58:46;;;;;;;;;;;19.20;65.80;;;;;;5103808;27;19923;-71
2022/06/17 08:01:12;;;;;;;;;;;19.30;65.70;;;;;;5102062;28;19916;-70
2022/06/17 08:03:37;;;;;;;;;;;19.30;65.60;;;;;;5102620;28;19979;-70
2022/06/17 08:06:03;;;;;;;;;;;19.40;65.40;;;;;;5100003;28;20014;-70
2022/06/17 08:08:29;;;;;;;;;;;19.40;65.50;;;;;;5102802;28;19912;-71
2022/06/17 08:10:56;;;;;;;;;;;19.40;65.40;;;;;;5107512;27;19961;-70
2022/06/17 08:13:22;;;;;;;;;;;19.50;65.30;;;;;;5101645;28;19985;-71
2022/06/17 08:15:49;;;;;;;;;;;19.50;65.20;;;;;;5104800;28;19915;-70
2022/06/17 08:18:14;;;;;;;;;;;19.50;65.10;;;;;;5098500;28;19947;-70
2022/06/17 08:20:41;;;;;;;;;;;19.60;65.00;;;;;;5101199;28;20028;-70
2022/06/17 08:23:06;;;;;;;;;;;19.60;65.00;;;;;;5100581;28;19923;-70
2022/06/17 08:25:33;;;;;;;;;;;19.70;65.00;;;;;;5106831;28;19916;-70
2022/06/17 08:28:02;;;;;;;;;;;19.70;64.80;;;;;;5098434;28;19946;-70
2022/06/17 08:30:30;;;;;;;;;;;19.70;64.90;;;;;;5102952;28;19956;-71
2022/06/17 08:32:56;;;;;;;;;;;19.70;64.80;;;;;;5101363;28;19916;-70
2022/06/17 08:35:23;;;;;;;;;;;19.80;64.70;;;;;;5106829;28;19920;-71
2022/06/17 08:37:51;;;;;;;;;;;19.80;64.60;;;;;;5099222;28;19915;-71
2022/06/17 08:40:36;;;;;;;;;;;19.90;64.60;;;;;;5106236;28;19912;-71
2022/06/17 08:43:04;;;;;;;;;;;19.90;64.60;;;;;;5099455;28;20311;-71
2022/06/17 08:45:35;;;;;;;;;;;20.00;64.50;;;;;;5106176;28;19919;-71
2022/06/17 08:48:08;;;;;;;;;;;20.00;64.40;;;;;;5100442;28;19927;-71
2022/06/17 08:50:41;;;;;;;;;;;20.00;64.30;;;;;;5106375;28;20279;-70
2022/06/17 08:53:30;;;;;;;;;;;20.10;64.10;;;;;;5101451;28;19920;-71
2022/06/17 08:56:14;;;;;;;;;;;20.10;64.10;;;;;;5102089;28;19969;-71
2022/06/17 08:58:49;;;;;;;;;;;20.20;64.00;;;;;;5095902;28;20018;-71
2022/06/17 09:01:33;;;;;;;;;;;20.30;63.80;;;;;;5106321;28;19950;-72
2022/06/17 09:04:10;;;;;;;;;;;20.40;63.60;;;;;;5101000;28;20027;-70
2022/06/17 09:06:55;;;;;;;;;;;20.50;63.50;;;;;;5105240;28;19976;-71
2022/06/17 09:09:39;;;;;;;;;;;20.50;63.50;;;;;;5100869;28;19916;-71
2022/06/17 09:12:25;;;;;;;;;;;20.60;63.40;;;;;;5106047;28;19923;-71
2022/06/17 09:14:59;;;;;;;;;;;20.60;63.40;;;;;;5101934;28;20390;-71
2022/06/17 09:17:30;;;;;;;;;;;20.60;63.40;;;;;;5104709;28;20578;-71
2022/06/17 09:19:58;;;;;;;;;;;20.70;64.00;;;;;;5094777;28;19920;-71
2022/06/17 09:22:28;;;;;;;;;;;20.70;63.30;;;;;;5101675;28;19999;-71
2022/06/17 09:24:59;;;;;;;;;;;20.70;63.50;;;;;;5100054;28;20355;-71
2022/06/17 09:27:26;;;;;;;;;;;20.80;63.30;;;;;;5105791;28;20006;-71
2022/06/17 09:29:58;;;;;;;;;;;20.80;63.20;;;;;;5095012;28;19966;-71
2022/06/17 09:32:26;;;;;;;;;;;20.80;63.20;;;;;;5105019;28;19911;-71
2022/06/17 09:35:04;;;;;;;;;;;20.90;63.30;;;;;;5102286;28;20376;-71
2022/06/17 09:37:45;;;;;;;;;;;20.90;63.20;;;;;;5105355;28;20000;-71
2022/06/17 09:40:23;;;;;;;;;;;20.90;63.20;;;;;;5100320;28;19911;-71
2022/06/17 09:42:58;;;;;;;;;;;21.00;63.10;;;;;;5105393;28;21381;-71
2022/06/17 09:45:27;;;;;;;;;;;21.00;62.90;;;;;;5093263;28;19920;-71
2022/06/17 09:48:06;;;;;;;;;;;21.10;62.90;;;;;;5100708;28;19923;-71
2022/06/17 09:50:43;;;;;;;;;;;21.20;63.60;;;;;;5098422;28;19988;-71
2022/06/17 09:53:15;;;;;;;;;;;21.20;62.90;;;;;;5100336;28;19912;-71
2022/06/17 09:55:44;;;;;;;;;;;21.20;62.90;;;;;;5100533;28;19919;-71
2022/06/17 09:58:19;;;;;;;;;;;21.30;62.70;;;;;;5105030;28;19918;-71
2022/06/17 10:00:46;;;;;;;;;;;21.30;62.70;;;;;;5098582;28;19916;-71
2022/06/17 10:03:19;;;;;;;;;;;21.40;62.60;;;;;;5103952;28;20554;-71
2022/06/17 10:05:48;;;;;;;;;;;21.40;62.30;;;;;;5098039;28;20387;-71
2022/06/17 10:08:32;;;;;;;;;;;21.50;62.30;;;;;;5102011;28;19918;-71
2022/06/17 10:11:10;;;;;;;;;;;21.60;62.20;;;;;;5095381;28;19920;-71
2022/06/17 10:13:42;;;;;;;;;;;21.70;62.10;;;;;;5104031;28;19915;-71
2022/06/17 10:19:18;;;;;;;;;;;21.80;61.70;;;;;;5094408;28;19958;-71
2022/06/17 10:21:43;;;;;;;;;;;21.90;61.80;;;;;;5098371;28;19980;-71
2022/06/17 10:24:09;;;;;;;;;;;22.00;61.90;;;;;;5102858;28;20305;-71
2022/06/17 10:26:43;;;;;;;;;;;22.10;61.70;;;;;;5098163;28;19964;-71
2022/06/17 10:29:09;;;;;;;;;;;22.20;61.80;;;;;;5103752;28;19911;-72
2022/06/17 10:31:36;;;;;;;;;;;22.30;61.80;;;;;;5101033;28;19973;-71
2022/06/17 10:34:03;;;;;;;;;;;22.30;61.90;;;;;;5099052;28;19912;-71
2022/06/17 10:36:30;;;;;;;;;;;22.40;61.60;;;;;;5104474;28;19976;-71
2022/06/17 10:38:55;;;;;;;;;;;22.50;61.50;;;;;;5098067;28;19923;-71
2022/06/17 10:41:21;;;;;;;;;;;22.60;61.30;;;;;;5104274;28;20417;-72
2022/06/17 10:43:50;;;;;;;;;;;22.70;61.30;;;;;;5100229;28;20018;-72
2022/06/17 10:46:19;;;;;;;;;;;22.80;61.10;;;;;;5104409;28;19911;-72
2022/06/17 10:49:00;;;;;;;;;;;23.00;61.50;;;;;;5099418;28;19923;-72
2022/06/17 10:51:26;;;;;;;;;;;23.10;61.40;;;;;;5105045;28;19926;-72
2022/06/17 10:53:54;;;;;;;;;;;23.30;61.20;;;;;;5103521;28;19916;-72
2022/06/17 10:56:25;;;;;;;;;;;23.40;61.10;;;;;;5108234;28;19950;-72
2022/06/17 10:58:58;;;;;;;;;;;23.50;61.30;;;;;;5103161;28;19920;-72
2022/06/17 11:01:25;;;;;;;;;;;23.50;61.30;;;;;;5108843;28;19919;-72
2022/06/17 11:04:08;;;;;;;;;;;23.60;61.20;;;;;;5103290;28;19919;-72
2022/06/17 11:06:35;;;;;;;;;;;23.70;61.40;;;;;;5107583;28;20306;-72
2022/06/17 11:09:03;;;;;;;;;;;23.80;61.10;;;;;;5100967;28;20318;-72
2022/06/17 11:14:34;;;;;;;;;;;24.00;60.60;;;;;;5098664;28;19922;-72
2022/06/17 11:17:01;;;;;;;;;;;24.20;60.80;;;;;;5107891;28;19937;-72
2022/06/17 11:19:27;;;;;;;;;;;24.30;60.50;;;;;;5097866;28;20002;-72
2022/06/17 11:21:55;;;;;;;;;;;24.40;60.00;;;;;;5107612;28;19918;-72
2022/06/17 11:24:28;;;;;;;;;;;24.50;59.80;;;;;;5100923;28;19996;-72
2022/06/17 11:27:05;;;;;;;;;;;24.60;59.70;;;;;;5107683;28;19985;-72
2022/06/17 11:29:39;;;;;;;;;;;24.70;59.50;;;;;;5101197;28;19923;-72
2022/06/17 11:32:12;;;;;;;;;;;24.90;59.20;;;;;;5106494;28;19915;-72
2022/06/17 11:34:45;;;;;;;;;;;25.00;59.50;;;;;;5102319;28;19916;-72
2022/06/17 11:37:18;;;;;;;;;;;25.00;59.10;;;;;;5102182;28;20269;-72
2022/06/17 11:39:44;;;;;;;;;;;25.10;59.30;;;;;;5103207;28;19938;-72
2022/06/17 11:42:22;;;;;;;;;;;25.20;59.10;;;;;;5107687;28;19919;-72
2022/06/17 11:44:49;;;;;;;;;;;25.20;58.90;;;;;;5093622;28;19923;-72
2022/06/17 11:47:18;;;;;;;;;;;25.30;58.70;;;;;;5107818;28;20625;-72
2022/06/17 11:49:44;;;;;;;;;;;25.40;58.70;;;;;;5099931;28;20458;-72
2022/06/17 11:52:09;;;;;;;;;;;25.40;58.50;;;;;;5107645;28;19920;-72
2022/06/17 11:54:46;;;;;;;;;;;25.50;58.50;;;;;;5107251;28;19916;-72
2022/06/17 11:57:16;;;;;;;;;;;25.60;58.30;;;;;;5107345;28;19919;-72
2022/06/17 11:59:44;;;;;;;;;;;25.60;58.20;;;;;;5107088;28;19919;-72
2022/06/17 12:02:10;;;;;;;;;;;25.70;58.30;;;;;;5102795;28;19916;-72
2022/06/17 12:04:48;;;;;;;;;;;25.70;58.10;;;;;;5106571;28;19959;-72
2022/06/17 12:07:22;;;;;;;;;;;25.80;58.00;;;;;;5102234;28;19920;-72
2022/06/17 12:09:51;;;;;;;;;;;25.80;58.00;;;;;;5104336;28;20472;-72
2022/06/17 12:12:17;;;;;;;;;;;25.90;58.20;;;;;;5101261;27;19994;-72
2022/06/17 12:15:06;;;;;;;;;;;25.90;58.30;;;;;;5106894;28;19919;-72
2022/06/17 12:17:32;;;;;;;;;;;25.90;57.90;;;;;;5098118;28;19931;-72
2022/06/17 12:19:58;;;;;;;;;;;26.00;58.30;;;;;;5102509;28;19939;-72
2022/06/17 12:22:35;;;;;;;;;;;26.10;57.80;;;;;;5101086;28;20356;-72
2022/06/17 12:25:15;;;;;;;;;;;26.10;57.60;;;;;;5105847;28;19940;-72
2022/06/17 12:27:45;;;;;;;;;;;26.20;57.70;;;;;;5098180;28;19951;-72
2022/06/17 12:30:18;;;;;;;;;;;26.30;57.70;;;;;;5100859;28;19953;-72
2022/06/17 12:32:43;;;;;;;;;;;26.30;57.60;;;;;;5099856;28;19973;-72
2022/06/17 12:35:15;;;;;;;;;;;26.40;57.80;;;;;;5104368;28;20657;-72
2022/06/17 12:37:40;;;;;;;;;;;26.40;57.60;;;;;;5098312;28;19920;-72
2022/06/17 12:40:15;;;;;;;;;;;26.50;57.50;;;;;;5100129;28;19919;-72
2022/06/17 12:42:41;;;;;;;;;;;26.60;57.50;;;;;;5094587;28;19924;-73
2022/06/17 12:45:23;;;;;;;;;;;26.70;57.60;;;;;;5099214;28;20287;-73
2022/06/17 12:48:07;;;;;;;;;;;26.80;57.30;;;;;;5095983;28;20380;-72
2022/06/17 12:53:26;;;;;;;;;;;27.00;57.10;;;;;;5101849;28;19941;-72
2022/06/17 12:55:54;;;;;;;;;;;27.20;57.20;;;;;;5103833;28;19919;-72
2022/06/17 12:58:41;;;;;;;;;;;27.20;57.10;;;;;;5099030;28;20627;-72
2022/06/17 13:01:17;;;;;;;;;;;27.20;57.50;;;;;;5105875;28;19918;-71
2022/06/17 13:03:49;;;;;;;;;;;27.30;57.30;;;;;;5101499;28;19958;-72
2022/06/17 13:06:20;;;;;;;;;;;27.40;56.80;;;;;;5105772;28;19981;-72
2022/06/17 13:08:58;;;;;;;;;;;27.40;57.00;;;;;;5100146;28;19941;-72
2022/06/17 13:11:34;;;;;;;;;;;27.50;56.90;;;;;;5104385;28;19912;-72
2022/06/17 13:14:17;;;;;;;;;;;27.60;56.70;;;;;;5099320;28;20390;-72
2022/06/17 13:16:45;;;;;;;;;;;27.70;56.40;;;;;;5103435;28;19986;-72
2022/06/17 13:19:29;;;;;;;;;;;27.80;56.40;;;;;;5092083;28;20507;-72
2022/06/17 13:22:02;;;;;;;;;;;27.90;56.20;;;;;;5105871;28;20012;-72
2022/06/17 13:24:28;;;;;;;;;;;27.90;56.30;;;;;;5101678;28;20367;-73
2022/06/17 13:26:59;;;;;;;;;;;28.00;56.70;;;;;;5105780;28;19947;-71
2022/06/17 13:29:40;;;;;;;;;;;28.00;55.90;;;;;;5099444;28;20345;-72
2022/06/17 13:32:06;;;;;;;;;;;28.10;55.50;;;;;;5105231;28;19949;-73
2022/06/17 13:34:37;;;;;;;;;;;28.20;55.80;;;;;;5102204;28;19920;-73
2022/06/17 13:37:25;;;;;;;;;;;28.20;55.70;;;;;;5105294;28;19911;-72
2022/06/17 13:40:10;;;;;;;;;;;28.30;56.30;;;;;;5099406;28;19912;-72
2022/06/17 13:42:36;;;;;;;;;;;28.40;55.90;;;;;;5101675;28;19916;-73
2022/06/17 13:45:01;;;;;;;;;;;28.50;55.90;;;;;;5098599;28;19926;-72
2022/06/17 13:47:27;;;;;;;;;;;28.50;55.70;;;;;;5106109;28;19911;-72
2022/06/17 13:50:15;;;;;;;;;;;28.60;55.40;;;;;;5097622;28;19916;-73
2022/06/17 13:52:49;;;;;;;;;;;28.60;55.70;;;;;;5104440;28;19949;-73
2022/06/17 13:55:15;;;;;;;;;;;28.70;55.40;;;;;;5091256;28;19931;-73
2022/06/17 13:57:40;;;;;;;;;;;28.70;55.00;;;;;;5105132;28;19920;-72
2022/06/17 14:00:24;;;;;;;;;;;28.70;55.10;;;;;;5097797;28;20591;-73
2022/06/17 14:02:55;;;;;;;;;;;28.70;55.00;;;;;;5101113;28;19915;-73
2022/06/17 14:05:20;;;;;;;;;;;28.70;54.60;;;;;;5092587;28;19916;-73
2022/06/17 14:07:49;;;;;;;;;;;28.70;55.30;;;;;;5104639;28;19934;-73
2022/06/17 14:10:33;;;;;;;;;;;28.70;55.30;;;;;;5096827;28;19924;-73
2022/06/17 14:13:00;;;;;;;;;;;28.80;55.00;;;;;;5104598;28;20390;-72
2022/06/17 14:15:30;;;;;;;;;;;28.80;54.50;;;;;;5098541;28;20011;-73
2022/06/17 14:17:57;;;;;;;;;;;28.80;54.40;;;;;;5098007;28;19968;-73
2022/06/17 14:20:32;;;;;;;;;;;28.90;54.00;;;;;;5093361;28;19912;-73
2022/06/17 14:23:15;;;;;;;;;;;28.90;54.40;;;;;;5104610;28;19951;-73
2022/06/17 14:25:44;;;;;;;;;;;29.00;54.40;;;;;;5097349;28;19915;-73
2022/06/17 14:28:28;;;;;;;;;;;29.10;54.80;;;;;;5106864;28;19916;-73
2022/06/17 14:31:08;;;;;;;;;;;29.10;54.20;;;;;;5101656;28;20368;-73
2022/06/17 14:33:40;;;;;;;;;;;29.20;54.10;;;;;;5107003;28;19919;-73
2022/06/17 14:36:12;;;;;;;;;;;29.30;53.70;;;;;;5102589;28;19922;-73
2022/06/17 14:38:40;;;;;;;;;;;29.30;53.70;;;;;;5107589;28;19963;-73
2022/06/17 14:44:18;;;;;;;;;;;29.50;53.70;;;;;;5104315;28;20367;-73
2022/06/17 14:47:02;;;;;;;;;;;29.70;53.50;;;;;;5101678;28;19943;-72
2022/06/17 14:49:39;;;;;;;;;;;29.80;53.00;;;;;;5101758;28;19912;-73
2022/06/17 14:52:22;;;;;;;;;;;29.90;52.70;;;;;;5103864;28;19919;-73
2022/06/17 14:54:58;;;;;;;;;;;30.00;52.80;;;;;;5105236;28;20550;-72